sensor_id;sensor_type;location;lat;lon;timestamp;temperature;humidity
67196;DHT22;54122;53.538;49.366;2023-08-17T00:01:01;19.70;97.60
67196;DHT22;54122;53.538;49.366;2023-08-17T00:03:27;19.70;97.60
67196;DHT22;54122;53.538;49.366;2023-08-17T00:05:54;19.60;97.50
67196;DHT22;54122;53.538;49.366;2023-08-17T00:08:20;19.60;98.10
67196;DHT22;54122;53.538;49.366;2023-08-17T00:10:46;19.50;97.90
67196;DHT22;54122;53.538;49.366;2023-08-17T00:13:13;19.50;98.30
67196;DHT22;54122;53.538;49.366;2023-08-17T00:15:40;19.50;98.30
67196;DHT22;54122;53.538;49.366;2023-08-17T00:18:07;19.50;98.50
67196;DHT22;54122;53.538;49.366;2023-08-17T00:20:33;19.40;98.50
67196;DHT22;54122;53.538;49.366;2023-08-17T00:23:00;19.40;98.70
67196;DHT22;54122;53.538;49.366;2023-08-17T00:25:26;19.40;98.90
67196;DHT22;54122;53.538;49.366;2023-08-17T00:27:52;19.30;99.00
67196;DHT22;54122;53.538;49.366;2023-08-17T00:30:19;19.30;98.80
67196;DHT22;54122;53.538;49.366;2023-08-17T00:32:46;19.30;98.90
67196;DHT22;54122;53.538;49.366;2023-08-17T00:35:12;19.20;99.00
67196;DHT22;54122;53.538;49.366;2023-08-17T00:37:39;19.20;99.00
67196;DHT22;54122;53.538;49.366;2023-08-17T00:40:06;19.20;99.20
67196;DHT22;54122;53.538;49.366;2023-08-17T00:42:32;19.20;99.30
67196;DHT22;54122;53.538;49.366;2023-08-17T00:44:59;19.10;99.30
67196;DHT22;54122;53.538;49.366;2023-08-17T00:47:25;19.10;99.60
67196;DHT22;54122;53.538;49.366;2023-08-17T00:49:53;19.10;99.90
67196;DHT22;54122;53.538;49.366;2023-08-17T00:52:19;19.00;99.90
67196;DHT22;54122;53.538;49.366;2023-08-17T00:54:46;19.00;99.90
67196;DHT22;54122;53.538;49.366;2023-08-17T00:57:12;18.90;99.90
67196;DHT22;54122;53.538;49.366;2023-08-17T00:59:39;19.00;99.90
67196;DHT22;54122;53.538;49.366;2023-08-17T01:02:05;18.90;99.90
67196;DHT22;54122;53.538;49.366;2023-08-17T01:04:33;18.90;99.90
67196;DHT22;54122;53.538;49.366;2023-08-17T01:06:59;18.80;99.90
67196;DHT22;54122;53.538;49.366;2023-08-17T01:09:25;18.80;99.90
67196;DHT22;54122;53.538;49.366;2023-08-17T01:12:31;18.80;99.90
67196;DHT22;54122;53.538;49.366;2023-08-17T01:15:10;18.80;99.90
67196;DHT22;54122;53.538;49.366;2023-08-17T01:18:09;18.70;99.90
67196;DHT22;54122;53.538;49.366;2023-08-17T01:20:37;18.60;99.90
67196;DHT22;54122;53.538;49.366;2023-08-17T01:23:07;18.60;99.90
67196;DHT22;54122;53.538;49.366;2023-08-17T01:25:33;18.60;99.90
67196;DHT22;54122;53.538;49.366;2023-08-17T01:28:03;18.60;99.90
67196;DHT22;54122;53.538;49.366;2023-08-17T01:31:24;18.60;99.90
67196;DHT22;54122;53.538;49.366;2023-08-17T01:33:54;18.60;99.90
67196;DHT22;54122;53.538;49.366;2023-08-17T01:36:25;18.60;99.90
67196;DHT22;54122;53.538;49.366;2023-08-17T01:38:53;18.60;99.90
67196;DHT22;54122;53.538;49.366;2023-08-17T01:41:23;18.60;99.90
67196;DHT22;54122;53.538;49.366;2023-08-17T01:43:50;18.60;99.90
67196;DHT22;54122;53.538;49.366;2023-08-17T01:46:17;18.60;99.90
67196;DHT22;54122;53.538;49.366;2023-08-17T01:48:45;18.60;99.90
67196;DHT22;54122;53.538;49.366;2023-08-17T01:51:18;18.60;99.90
67196;DHT22;54122;53.538;49.366;2023-08-17T01:53:48;18.60;99.90
67196;DHT22;54122;53.538;49.366;2023-08-17T01:56:14;18.60;99.90
67196;DHT22;54122;53.538;49.366;2023-08-17T01:58:41;18.60;99.90
67196;DHT22;54122;53.538;49.366;2023-08-17T02:01:07;18.70;99.90
67196;DHT22;54122;53.538;49.366;2023-08-17T02:03:34;18.70;99.90
67196;DHT22;54122;53.538;49.366;2023-08-17T02:06:00;18.70;99.90
67196;DHT22;54122;53.538;49.366;2023-08-17T02:08:26;18.70;99.90
67196;DHT22;54122;53.538;49.366;2023-08-17T02:10:54;18.80;99.90
67196;DHT22;54122;53.538;49.366;2023-08-17T02:13:20;18.80;99.90
67196;DHT22;54122;53.538;49.366;2023-08-17T02:15:47;18.90;99.90
67196;DHT22;54122;53.538;49.366;2023-08-17T02:18:13;18.90;99.90
67196;DHT22;54122;53.538;49.366;2023-08-17T02:20:40;18.90;99.90
67196;DHT22;54122;53.538;49.366;2023-08-17T02:23:10;19.00;99.90
67196;DHT22;54122;53.538;49.366;2023-08-17T02:25:40;19.00;99.90
67196;DHT22;54122;53.538;49.366;2023-08-17T02:28:06;19.10;99.90
67196;DHT22;54122;53.538;49.366;2023-08-17T02:30:33;19.10;99.90
67196;DHT22;54122;53.538;49.366;2023-08-17T02:32:59;19.20;99.90
67196;DHT22;54122;53.538;49.366;2023-08-17T02:35:26;19.20;99.90
67196;DHT22;54122;53.538;49.366;2023-08-17T02:37:52;19.30;99.90
67196;DHT22;54122;53.538;49.366;2023-08-17T02:40:18;19.30;99.90
67196;DHT22;54122;53.538;49.366;2023-08-17T02:42:45;19.40;99.90
67196;DHT22;54122;53.538;49.366;2023-08-17T02:45:11;19.60;99.90
67196;DHT22;54122;53.538;49.366;2023-08-17T02:47:38;19.70;99.90
67196;DHT22;54122;53.538;49.366;2023-08-17T02:50:05;19.80;99.50
67196;DHT22;54122;53.538;49.366;2023-08-17T02:52:31;20.00;99.00
67196;DHT22;54122;53.538;49.366;2023-08-17T02:54:58;20.00;98.50
67196;DHT22;54122;53.538;49.366;2023-08-17T02:57:24;20.10;98.40
67196;DHT22;54122;53.538;49.366;2023-08-17T02:59:50;20.10;98.00
67196;DHT22;54122;53.538;49.366;2023-08-17T03:02:17;20.10;97.80
67196;DHT22;54122;53.538;49.366;2023-08-17T03:04:43;20.20;97.80
67196;DHT22;54122;53.538;49.366;2023-08-17T03:07:09;20.20;97.70
67196;DHT22;54122;53.538;49.366;2023-08-17T03:09:36;20.30;97.50
67196;DHT22;54122;53.538;49.366;2023-08-17T03:12:02;20.40;97.10
67196;DHT22;54122;53.538;49.366;2023-08-17T03:14:29;20.60;96.70
67196;DHT22;54122;53.538;49.366;2023-08-17T03:16:56;20.70;96.10
67196;DHT22;54122;53.538;49.366;2023-08-17T03:19:22;20.90;95.50
67196;DHT22;54122;53.538;49.366;2023-08-17T03:21:48;21.10;94.80
67196;DHT22;54122;53.538;49.366;2023-08-17T03:24:15;21.20;94.30
67196;DHT22;54122;53.538;49.366;2023-08-17T03:26:41;21.30;93.90
67196;DHT22;54122;53.538;49.366;2023-08-17T03:29:07;21.40;93.40
67196;DHT22;54122;53.538;49.366;2023-08-17T03:31:35;21.50;93.00
67196;DHT22;54122;53.538;49.366;2023-08-17T03:34:02;21.60;92.80
67196;DHT22;54122;53.538;49.366;2023-08-17T03:36:28;21.80;92.30
67196;DHT22;54122;53.538;49.366;2023-08-17T03:38:55;22.10;92.10
67196;DHT22;54122;53.538;49.366;2023-08-17T03:41:21;22.40;91.40
67196;DHT22;54122;53.538;49.366;2023-08-17T03:43:49;22.70;90.50
67196;DHT22;54122;53.538;49.366;2023-08-17T03:46:15;23.10;89.30
67196;DHT22;54122;53.538;49.366;2023-08-17T03:48:42;23.70;86.90
67196;DHT22;54122;53.538;49.366;2023-08-17T03:51:08;24.40;84.30
67196;DHT22;54122;53.538;49.366;2023-08-17T03:53:35;26.10;78.70
67196;DHT22;54122;53.538;49.366;2023-08-17T03:56:01;27.30;74.00
67196;DHT22;54122;53.538;49.366;2023-08-17T03:58:28;28.60;67.80
67196;DHT22;54122;53.538;49.366;2023-08-17T04:00:59;29.60;64.90
67196;DHT22;54122;53.538;49.366;2023-08-17T04:03:25;30.30;61.80
67196;DHT22;54122;53.538;49.366;2023-08-17T04:05:52;30.60;59.40
67196;DHT22;54122;53.538;49.366;2023-08-17T04:08:18;30.80;57.00
67196;DHT22;54122;53.538;49.366;2023-08-17T04:10:44;30.60;57.50
67196;DHT22;54122;53.538;49.366;2023-08-17T04:13:11;30.60;56.20
67196;DHT22;54122;53.538;49.366;2023-08-17T04:15:38;30.40;55.80
67196;DHT22;54122;53.538;49.366;2023-08-17T04:18:04;30.00;56.20
67196;DHT22;54122;53.538;49.366;2023-08-17T04:20:30;29.70;55.70
67196;DHT22;54122;53.538;49.366;2023-08-17T04:22:57;28.90;57.20
67196;DHT22;54122;53.538;49.366;2023-08-17T04:25:23;29.10;58.60
67196;DHT22;54122;53.538;49.366;2023-08-17T04:27:49;30.20;56.50
67196;DHT22;54122;53.538;49.366;2023-08-17T04:30:16;31.50;53.30
67196;DHT22;54122;53.538;49.366;2023-08-17T04:32:42;32.50;49.80
67196;DHT22;54122;53.538;49.366;2023-08-17T04:35:09;32.90;47.80
67196;DHT22;54122;53.538;49.366;2023-08-17T04:37:36;33.10;46.30
67196;DHT22;54122;53.538;49.366;2023-08-17T04:40:02;33.30;46.00
67196;DHT22;54122;53.538;49.366;2023-08-17T04:42:29;33.20;44.00
67196;DHT22;54122;53.538;49.366;2023-08-17T04:44:56;33.10;44.40
67196;DHT22;54122;53.538;49.366;2023-08-17T04:47:22;32.90;44.20
67196;DHT22;54122;53.538;49.366;2023-08-17T04:49:49;32.50;44.90
67196;DHT22;54122;53.538;49.366;2023-08-17T04:52:15;32.50;44.90
67196;DHT22;54122;53.538;49.366;2023-08-17T04:54:41;32.60;44.60
67196;DHT22;54122;53.538;49.366;2023-08-17T04:57:08;32.90;44.90
67196;DHT22;54122;53.538;49.366;2023-08-17T04:59:34;33.20;43.90
67196;DHT22;54122;53.538;49.366;2023-08-17T05:02:01;33.60;43.70
67196;DHT22;54122;53.538;49.366;2023-08-17T05:04:29;34.00;42.70
67196;DHT22;54122;53.538;49.366;2023-08-17T05:06:57;34.10;40.90
67196;DHT22;54122;53.538;49.366;2023-08-17T05:09:23;33.90;40.60
67196;DHT22;54122;53.538;49.366;2023-08-17T05:11:50;33.90;40.30
67196;DHT22;54122;53.538;49.366;2023-08-17T05:14:16;34.10;40.00
67196;DHT22;54122;53.538;49.366;2023-08-17T05:16:42;34.00;39.80
67196;DHT22;54122;53.538;49.366;2023-08-17T05:19:09;34.00;40.10
67196;DHT22;54122;53.538;49.366;2023-08-17T05:21:35;34.20;40.00
67196;DHT22;54122;53.538;49.366;2023-08-17T05:24:02;34.20;39.60
67196;DHT22;54122;53.538;49.366;2023-08-17T05:26:31;34.40;39.20
67196;DHT22;54122;53.538;49.366;2023-08-17T05:28:58;34.30;38.60
67196;DHT22;54122;53.538;49.366;2023-08-17T05:31:25;34.20;39.10
67196;DHT22;54122;53.538;49.366;2023-08-17T05:33:53;34.50;39.00
67196;DHT22;54122;53.538;49.366;2023-08-17T05:36:20;34.80;38.10
67196;DHT22;54122;53.538;49.366;2023-08-17T05:38:46;34.90;37.70
67196;DHT22;54122;53.538;49.366;2023-08-17T05:41:12;34.70;37.70
67196;DHT22;54122;53.538;49.366;2023-08-17T05:43:39;35.00;37.80
67196;DHT22;54122;53.538;49.366;2023-08-17T05:46:05;35.50;37.30
67196;DHT22;54122;53.538;49.366;2023-08-17T05:48:32;35.70;36.90
67196;DHT22;54122;53.538;49.366;2023-08-17T05:50:59;35.90;36.30
67196;DHT22;54122;53.538;49.366;2023-08-17T05:53:25;36.10;36.10
67196;DHT22;54122;53.538;49.366;2023-08-17T05:55:52;36.20;35.50
67196;DHT22;54122;53.538;49.366;2023-08-17T05:58:18;36.40;35.20
67196;DHT22;54122;53.538;49.366;2023-08-17T06:00:45;36.50;35.00
67196;DHT22;54122;53.538;49.366;2023-08-17T06:03:11;36.70;34.50
67196;DHT22;54122;53.538;49.366;2023-08-17T06:05:39;36.80;34.00
67196;DHT22;54122;53.538;49.366;2023-08-17T06:08:05;36.80;33.30
67196;DHT22;54122;53.538;49.366;2023-08-17T06:10:32;36.70;33.70
67196;DHT22;54122;53.538;49.366;2023-08-17T06:12:58;36.90;33.60
67196;DHT22;54122;53.538;49.366;2023-08-17T06:15:25;37.00;33.30
67196;DHT22;54122;53.538;49.366;2023-08-17T06:17:51;37.10;33.00
67196;DHT22;54122;53.538;49.366;2023-08-17T06:20:18;37.10;32.50
67196;DHT22;54122;53.538;49.366;2023-08-17T06:22:47;37.20;32.70
67196;DHT22;54122;53.538;49.366;2023-08-17T06:25:14;37.30;31.70
67196;DHT22;54122;53.538;49.366;2023-08-17T06:27:42;37.30;31.30
67196;DHT22;54122;53.538;49.366;2023-08-17T06:30:11;37.30;31.40
67196;DHT22;54122;53.538;49.366;2023-08-17T06:32:38;37.30;31.20
67196;DHT22;54122;53.538;49.366;2023-08-17T06:35:07;37.40;30.00
67196;DHT22;54122;53.538;49.366;2023-08-17T06:37:34;37.40;30.00
67196;DHT22;54122;53.538;49.366;2023-08-17T06:40:01;37.20;29.80
67196;DHT22;54122;53.538;49.366;2023-08-17T06:42:28;37.10;30.30
67196;DHT22;54122;53.538;49.366;2023-08-17T06:44:55;37.10;29.70
67196;DHT22;54122;53.538;49.366;2023-08-17T06:47:21;37.10;29.80
67196;DHT22;54122;53.538;49.366;2023-08-17T06:49:49;37.10;29.80
67196;DHT22;54122;53.538;49.366;2023-08-17T06:52:16;37.20;29.80
67196;DHT22;54122;53.538;49.366;2023-08-17T06:54:42;37.20;29.40
67196;DHT22;54122;53.538;49.366;2023-08-17T06:57:10;37.20;29.60
67196;DHT22;54122;53.538;49.366;2023-08-17T06:59:36;37.40;29.30
67196;DHT22;54122;53.538;49.366;2023-08-17T07:02:06;37.20;28.60
67196;DHT22;54122;53.538;49.366;2023-08-17T07:04:32;36.90;28.70
67196;DHT22;54122;53.538;49.366;2023-08-17T07:06:59;37.00;29.20
67196;DHT22;54122;53.538;49.366;2023-08-17T07:09:25;37.10;29.20
67196;DHT22;54122;53.538;49.366;2023-08-17T07:11:55;37.40;28.80
67196;DHT22;54122;53.538;49.366;2023-08-17T07:14:21;37.20;28.20
67196;DHT22;54122;53.538;49.366;2023-08-17T07:16:48;37.20;28.90
67196;DHT22;54122;53.538;49.366;2023-08-17T07:19:14;37.30;28.50
67196;DHT22;54122;53.538;49.366;2023-08-17T07:21:43;37.40;28.60
67196;DHT22;54122;53.538;49.366;2023-08-17T07:24:14;37.50;28.20
67196;DHT22;54122;53.538;49.366;2023-08-17T07:26:43;37.30;28.40
67196;DHT22;54122;53.538;49.366;2023-08-17T07:29:10;37.30;28.30
67196;DHT22;54122;53.538;49.366;2023-08-17T07:31:38;37.30;28.70
67196;DHT22;54122;53.538;49.366;2023-08-17T07:34:05;37.50;28.30
67196;DHT22;54122;53.538;49.366;2023-08-17T07:36:32;37.90;28.30
67196;DHT22;54122;53.538;49.366;2023-08-17T07:38:59;38.00;27.80
67196;DHT22;54122;53.538;49.366;2023-08-17T07:41:26;38.10;27.60
67196;DHT22;54122;53.538;49.366;2023-08-17T07:43:52;38.00;26.90
67196;DHT22;54122;53.538;49.366;2023-08-17T07:46:18;37.80;26.50
67196;DHT22;54122;53.538;49.366;2023-08-17T07:48:45;37.50;26.50
67196;DHT22;54122;53.538;49.366;2023-08-17T07:51:11;37.50;26.50
67196;DHT22;54122;53.538;49.366;2023-08-17T07:53:38;37.60;26.40
67196;DHT22;54122;53.538;49.366;2023-08-17T07:56:04;37.90;26.40
67196;DHT22;54122;53.538;49.366;2023-08-17T07:58:31;38.20;25.80
67196;DHT22;54122;53.538;49.366;2023-08-17T08:00:58;38.30;25.30
67196;DHT22;54122;53.538;49.366;2023-08-17T08:03:25;38.30;25.30
67196;DHT22;54122;53.538;49.366;2023-08-17T08:05:52;38.40;25.50
67196;DHT22;54122;53.538;49.366;2023-08-17T08:08:19;38.80;25.10
67196;DHT22;54122;53.538;49.366;2023-08-17T08:10:46;38.40;24.90
67196;DHT22;54122;53.538;49.366;2023-08-17T08:13:12;38.40;25.10
67196;DHT22;54122;53.538;49.366;2023-08-17T08:15:39;38.50;24.70
67196;DHT22;54122;53.538;49.366;2023-08-17T08:18:06;38.50;24.90
67196;DHT22;54122;53.538;49.366;2023-08-17T08:20:32;38.60;24.50
67196;DHT22;54122;53.538;49.366;2023-08-17T08:22:59;38.60;24.50
67196;DHT22;54122;53.538;49.366;2023-08-17T08:25:25;38.60;24.70
67196;DHT22;54122;53.538;49.366;2023-08-17T08:27:52;38.70;24.70
67196;DHT22;54122;53.538;49.366;2023-08-17T08:30:19;38.90;24.30
67196;DHT22;54122;53.538;49.366;2023-08-17T08:32:46;39.10;24.40
67196;DHT22;54122;53.538;49.366;2023-08-17T08:35:13;39.10;24.40
67196;DHT22;54122;53.538;49.366;2023-08-17T08:37:40;39.20;23.70
67196;DHT22;54122;53.538;49.366;2023-08-17T08:40:11;39.00;23.80
67196;DHT22;54122;53.538;49.366;2023-08-17T08:42:38;39.00;23.60
67196;DHT22;54122;53.538;49.366;2023-08-17T08:45:06;39.30;23.30
67196;DHT22;54122;53.538;49.366;2023-08-17T08:47:34;39.10;23.00
67196;DHT22;54122;53.538;49.366;2023-08-17T08:50:03;38.60;23.40
67196;DHT22;54122;53.538;49.366;2023-08-17T08:52:42;38.60;24.00
67196;DHT22;54122;53.538;49.366;2023-08-17T08:55:23;38.80;23.80
67196;DHT22;54122;53.538;49.366;2023-08-17T08:57:52;38.70;23.70
67196;DHT22;54122;53.538;49.366;2023-08-17T09:00:20;38.60;24.10
67196;DHT22;54122;53.538;49.366;2023-08-17T09:02:48;38.50;24.00
67196;DHT22;54122;53.538;49.366;2023-08-17T09:05:18;38.60;23.80
67196;DHT22;54122;53.538;49.366;2023-08-17T09:07:47;38.30;24.10
67196;DHT22;54122;53.538;49.366;2023-08-17T09:10:18;38.40;24.50
67196;DHT22;54122;53.538;49.366;2023-08-17T09:12:46;38.50;23.80
67196;DHT22;54122;53.538;49.366;2023-08-17T09:15:15;38.70;24.20
67196;DHT22;54122;53.538;49.366;2023-08-17T09:17:42;38.80;24.10
67196;DHT22;54122;53.538;49.366;2023-08-17T09:20:09;38.90;23.90
67196;DHT22;54122;53.538;49.366;2023-08-17T09:22:40;38.60;24.30
67196;DHT22;54122;53.538;49.366;2023-08-17T09:25:08;38.20;24.70
67196;DHT22;54122;53.538;49.366;2023-08-17T09:27:39;38.10;24.80
67196;DHT22;54122;53.538;49.366;2023-08-17T09:30:09;38.10;24.80
67196;DHT22;54122;53.538;49.366;2023-08-17T09:32:39;37.70;25.20
67196;DHT22;54122;53.538;49.366;2023-08-17T09:35:08;37.30;25.70
67196;DHT22;54122;53.538;49.366;2023-08-17T09:37:35;36.80;26.20
67196;DHT22;54122;53.538;49.366;2023-08-17T09:40:04;36.20;26.90
67196;DHT22;54122;53.538;49.366;2023-08-17T09:42:34;36.00;27.30
67196;DHT22;54122;53.538;49.366;2023-08-17T09:45:04;36.00;27.30
67196;DHT22;54122;53.538;49.366;2023-08-17T09:47:31;36.00;27.30
67196;DHT22;54122;53.538;49.366;2023-08-17T09:49:57;35.80;27.40
67196;DHT22;54122;53.538;49.366;2023-08-17T09:52:24;35.50;28.30
67196;DHT22;54122;53.538;49.366;2023-08-17T09:54:53;35.40;28.80
67196;DHT22;54122;53.538;49.366;2023-08-17T09:57:21;35.40;28.30
67196;DHT22;54122;53.538;49.366;2023-08-17T09:59:48;35.50;28.70
67196;DHT22;54122;53.538;49.366;2023-08-17T10:02:19;35.60;28.20
67196;DHT22;54122;53.538;49.366;2023-08-17T10:04:53;35.50;28.10
67196;DHT22;54122;53.538;49.366;2023-08-17T10:07:23;35.00;28.70
67196;DHT22;54122;53.538;49.366;2023-08-17T10:10:00;34.80;29.00
67196;DHT22;54122;53.538;49.366;2023-08-17T10:12:36;34.80;29.70
67196;DHT22;54122;53.538;49.366;2023-08-17T10:15:07;35.00;29.10
67196;DHT22;54122;53.538;49.366;2023-08-17T10:17:39;35.00;28.80
67196;DHT22;54122;53.538;49.366;2023-08-17T10:20:09;34.80;29.40
67196;DHT22;54122;53.538;49.366;2023-08-17T10:22:47;34.80;29.80
67196;DHT22;54122;53.538;49.366;2023-08-17T10:25:18;34.70;29.90
67196;DHT22;54122;53.538;49.366;2023-08-17T10:27:47;34.60;30.00
67196;DHT22;54122;53.538;49.366;2023-08-17T10:30:15;34.50;30.00
67196;DHT22;54122;53.538;49.366;2023-08-17T10:32:41;34.40;30.10
67196;DHT22;54122;53.538;49.366;2023-08-17T10:35:11;34.30;30.10
67196;DHT22;54122;53.538;49.366;2023-08-17T10:37:42;34.10;30.30
67196;DHT22;54122;53.538;49.366;2023-08-17T10:40:09;34.00;30.10
67196;DHT22;54122;53.538;49.366;2023-08-17T10:42:36;33.70;30.70
67196;DHT22;54122;53.538;49.366;2023-08-17T10:48:27;33.50;32.00
67196;DHT22;54122;53.538;49.366;2023-08-17T10:51:03;33.30;32.10
67196;DHT22;54122;53.538;49.366;2023-08-17T10:53:37;33.40;31.90
67196;DHT22;54122;53.538;49.366;2023-08-17T10:56:12;33.30;31.80
67196;DHT22;54122;53.538;49.366;2023-08-17T10:58:39;33.40;32.00
67196;DHT22;54122;53.538;49.366;2023-08-17T11:01:07;33.30;31.60
67196;DHT22;54122;53.538;49.366;2023-08-17T11:03:33;33.20;31.50
67196;DHT22;54122;53.538;49.366;2023-08-17T11:06:15;33.20;31.90
67196;DHT22;54122;53.538;49.366;2023-08-17T11:08:53;33.30;31.80
67196;DHT22;54122;53.538;49.366;2023-08-17T11:11:21;33.30;31.80
67196;DHT22;54122;53.538;49.366;2023-08-17T11:13:49;33.30;32.30
67196;DHT22;54122;53.538;49.366;2023-08-17T11:16:17;33.40;32.50
67196;DHT22;54122;53.538;49.366;2023-08-17T11:18:46;33.60;32.20
67196;DHT22;54122;53.538;49.366;2023-08-17T11:21:13;33.70;32.20
67196;DHT22;54122;53.538;49.366;2023-08-17T11:23:43;33.60;32.40
67196;DHT22;54122;53.538;49.366;2023-08-17T11:26:09;33.60;32.90
67196;DHT22;54122;53.538;49.366;2023-08-17T11:28:36;33.80;32.60
67196;DHT22;54122;53.538;49.366;2023-08-17T11:31:09;33.80;32.50
67196;DHT22;54122;53.538;49.366;2023-08-17T11:33:37;33.90;32.60
67196;DHT22;54122;53.538;49.366;2023-08-17T11:36:06;33.90;32.30
67196;DHT22;54122;53.538;49.366;2023-08-17T11:38:40;33.70;32.50
67196;DHT22;54122;53.538;49.366;2023-08-17T11:41:07;33.50;32.50
67196;DHT22;54122;53.538;49.366;2023-08-17T11:43:35;33.40;33.00
67196;DHT22;54122;53.538;49.366;2023-08-17T11:46:02;33.10;33.30
67196;DHT22;54122;53.538;49.366;2023-08-17T11:48:29;33.00;33.40
67196;DHT22;54122;53.538;49.366;2023-08-17T11:50:56;33.00;33.70
67196;DHT22;54122;53.538;49.366;2023-08-17T11:53:22;32.90;33.90
67196;DHT22;54122;53.538;49.366;2023-08-17T11:55:49;33.00;33.70
67196;DHT22;54122;53.538;49.366;2023-08-17T11:58:16;33.20;33.70
67196;DHT22;54122;53.538;49.366;2023-08-17T12:00:44;33.50;33.40
67196;DHT22;54122;53.538;49.366;2023-08-17T12:03:18;33.80;33.00
67196;DHT22;54122;53.538;49.366;2023-08-17T12:05:46;34.10;32.40
67196;DHT22;54122;53.538;49.366;2023-08-17T12:08:13;34.30;31.30
67196;DHT22;54122;53.538;49.366;2023-08-17T12:10:41;34.20;31.20
67196;DHT22;54122;53.538;49.366;2023-08-17T12:13:11;34.20;31.80
67196;DHT22;54122;53.538;49.366;2023-08-17T12:15:38;34.20;31.60
67196;DHT22;54122;53.538;49.366;2023-08-17T12:18:07;33.60;33.10
67196;DHT22;54122;53.538;49.366;2023-08-17T12:20:34;33.20;33.40
67196;DHT22;54122;53.538;49.366;2023-08-17T12:23:02;33.00;33.30
67196;DHT22;54122;53.538;49.366;2023-08-17T12:25:29;33.00;33.20
67196;DHT22;54122;53.538;49.366;2023-08-17T12:28:00;32.90;33.30
67196;DHT22;54122;53.538;49.366;2023-08-17T12:30:30;32.90;33.50
67196;DHT22;54122;53.538;49.366;2023-08-17T12:33:02;33.10;34.00
67196;DHT22;54122;53.538;49.366;2023-08-17T12:35:30;33.40;33.70
67196;DHT22;54122;53.538;49.366;2023-08-17T12:37:57;33.80;33.30
67196;DHT22;54122;53.538;49.366;2023-08-17T12:40:23;33.80;32.50
67196;DHT22;54122;53.538;49.366;2023-08-17T12:42:50;33.80;32.30
67196;DHT22;54122;53.538;49.366;2023-08-17T12:45:17;33.80;32.30
67196;DHT22;54122;53.538;49.366;2023-08-17T12:47:43;33.90;32.10
67196;DHT22;54122;53.538;49.366;2023-08-17T12:50:10;33.80;32.10
67196;DHT22;54122;53.538;49.366;2023-08-17T12:52:36;33.50;31.50
67196;DHT22;54122;53.538;49.366;2023-08-17T12:55:03;33.20;32.20
67196;DHT22;54122;53.538;49.366;2023-08-17T12:57:29;32.90;32.60
67196;DHT22;54122;53.538;49.366;2023-08-17T12:59:57;32.70;33.30
67196;DHT22;54122;53.538;49.366;2023-08-17T13:02:23;32.70;33.40
67196;DHT22;54122;53.538;49.366;2023-08-17T13:04:50;32.90;33.60
67196;DHT22;54122;53.538;49.366;2023-08-17T13:07:16;33.10;33.60
67196;DHT22;54122;53.538;49.366;2023-08-17T13:09:43;33.20;33.10
67196;DHT22;54122;53.538;49.366;2023-08-17T13:12:11;33.20;32.80
67196;DHT22;54122;53.538;49.366;2023-08-17T13:14:38;33.00;33.00
67196;DHT22;54122;53.538;49.366;2023-08-17T13:17:05;32.80;33.30
67196;DHT22;54122;53.538;49.366;2023-08-17T13:19:31;32.60;33.80
67196;DHT22;54122;53.538;49.366;2023-08-17T13:21:58;32.50;34.20
67196;DHT22;54122;53.538;49.366;2023-08-17T13:24:24;32.30;33.80
67196;DHT22;54122;53.538;49.366;2023-08-17T13:26:51;32.20;33.40
67196;DHT22;54122;53.538;49.366;2023-08-17T13:29:21;32.00;32.60
67196;DHT22;54122;53.538;49.366;2023-08-17T13:31:47;31.70;33.00
67196;DHT22;54122;53.538;49.366;2023-08-17T13:34:14;31.60;33.80
67196;DHT22;54122;53.538;49.366;2023-08-17T13:36:40;31.40;34.40
67196;DHT22;54122;53.538;49.366;2023-08-17T13:39:07;31.30;34.50
67196;DHT22;54122;53.538;49.366;2023-08-17T13:41:33;31.10;34.50
67196;DHT22;54122;53.538;49.366;2023-08-17T13:44:00;30.80;35.10
67196;DHT22;54122;53.538;49.366;2023-08-17T13:46:28;30.40;35.20
67196;DHT22;54122;53.538;49.366;2023-08-17T13:48:54;30.10;35.30
67196;DHT22;54122;53.538;49.366;2023-08-17T13:51:21;29.90;35.80
67196;DHT22;54122;53.538;49.366;2023-08-17T13:53:48;29.70;36.10
67196;DHT22;54122;53.538;49.366;2023-08-17T13:56:16;29.60;36.50
67196;DHT22;54122;53.538;49.366;2023-08-17T13:58:42;29.50;36.80
67196;DHT22;54122;53.538;49.366;2023-08-17T14:01:08;29.50;37.00
67196;DHT22;54122;53.538;49.366;2023-08-17T14:03:36;29.50;37.30
67196;DHT22;54122;53.538;49.366;2023-08-17T14:06:03;29.40;37.70
67196;DHT22;54122;53.538;49.366;2023-08-17T14:08:29;29.40;37.90
67196;DHT22;54122;53.538;49.366;2023-08-17T14:10:55;29.30;38.00
67196;DHT22;54122;53.538;49.366;2023-08-17T14:13:22;29.20;38.40
67196;DHT22;54122;53.538;49.366;2023-08-17T14:15:48;29.10;38.50
67196;DHT22;54122;53.538;49.366;2023-08-17T14:18:14;29.10;38.90
67196;DHT22;54122;53.538;49.366;2023-08-17T14:20:41;29.10;39.10
67196;DHT22;54122;53.538;49.366;2023-08-17T14:23:07;29.00;39.30
67196;DHT22;54122;53.538;49.366;2023-08-17T14:25:34;29.00;39.70
67196;DHT22;54122;53.538;49.366;2023-08-17T14:28:04;29.00;40.30
67196;DHT22;54122;53.538;49.366;2023-08-17T14:30:31;29.00;40.60
67196;DHT22;54122;53.538;49.366;2023-08-17T14:32:57;28.90;41.00
67196;DHT22;54122;53.538;49.366;2023-08-17T14:35:24;28.80;41.30
67196;DHT22;54122;53.538;49.366;2023-08-17T14:37:50;28.60;42.10
67196;DHT22;54122;53.538;49.366;2023-08-17T14:40:17;28.50;42.50
67196;DHT22;54122;53.538;49.366;2023-08-17T14:42:44;28.40;42.40
67196;DHT22;54122;53.538;49.366;2023-08-17T14:45:11;28.40;42.60
67196;DHT22;54122;53.538;49.366;2023-08-17T14:47:37;28.50;42.50
67196;DHT22;54122;53.538;49.366;2023-08-17T14:50:08;28.50;42.40
67196;DHT22;54122;53.538;49.366;2023-08-17T14:52:34;28.70;42.50
67196;DHT22;54122;53.538;49.366;2023-08-17T14:55:02;28.70;42.50
67196;DHT22;54122;53.538;49.366;2023-08-17T14:57:30;28.60;42.90
67196;DHT22;54122;53.538;49.366;2023-08-17T14:59:57;28.40;43.40
67196;DHT22;54122;53.538;49.366;2023-08-17T15:02:23;28.20;43.70
67196;DHT22;54122;53.538;49.366;2023-08-17T15:04:49;28.00;44.40
67196;DHT22;54122;53.538;49.366;2023-08-17T15:07:16;27.90;45.00
67196;DHT22;54122;53.538;49.366;2023-08-17T15:09:42;27.80;45.70
67196;DHT22;54122;53.538;49.366;2023-08-17T15:12:09;27.70;46.30
67196;DHT22;54122;53.538;49.366;2023-08-17T15:14:35;27.60;46.80
67196;DHT22;54122;53.538;49.366;2023-08-17T15:17:01;27.50;47.00
67196;DHT22;54122;53.538;49.366;2023-08-17T15:19:28;27.40;47.50
67196;DHT22;54122;53.538;49.366;2023-08-17T15:21:56;27.30;47.90